Time;durP1;ratioP1;P1;durP2;ratioP2;P2;SDS_P1;SDS_P2;PMS_P1;PMS_P2;Temp;Humidity;BMP_temperature;BMP_pressure;BME280_temperature;BME280_humidity;BME280_pressure;Samples;Min_cycle;Max_cycle;Signal;HPM_P1;HPM_P2
2023/09/17 00:01:23;;;;;;;21.55;12.40;;;12.50;100.00;;;;;;5004318;28;20080;-74
2023/09/17 00:03:51;;;;;;;18.77;11.65;;;12.60;100.00;;;;;;5022102;28;20055;-74
2023/09/17 00:06:19;;;;;;;20.13;11.95;;;12.50;100.00;;;;;;5023731;28;20128;-74
2023/09/17 00:08:46;;;;;;;22.33;12.10;;;12.50;100.00;;;;;;5020905;28;20060;-74
2023/09/17 00:11:14;;;;;;;22.75;11.38;;;12.50;100.00;;;;;;5005277;28;20049;-74
2023/09/17 00:13:41;;;;;;;18.02;11.63;;;12.50;100.00;;;;;;5019502;28;20180;-74
2023/09/17 00:16:10;;;;;;;20.67;11.07;;;12.40;100.00;;;;;;5004703;28;20557;-74
2023/09/17 00:18:37;;;;;;;21.65;11.55;;;12.50;100.00;;;;;;5004078;28;20178;-74
2023/09/17 00:21:06;;;;;;;17.77;11.20;;;12.50;100.00;;;;;;5024078;28;20135;-74
2023/09/17 00:23:33;;;;;;;19.73;12.05;;;12.40;100.00;;;;;;5028682;28;20065;-74
2023/09/17 00:26:00;;;;;;;19.48;11.25;;;12.40;100.00;;;;;;5007790;28;20049;-73
2023/09/17 00:28:26;;;;;;;20.83;10.93;;;12.40;100.00;;;;;;5017550;28;20148;-74
2023/09/17 00:30:54;;;;;;;19.52;11.00;;;12.40;100.00;;;;;;5025152;28;20045;-74
2023/09/17 00:33:21;;;;;;;26.27;13.15;;;12.30;100.00;;;;;;5026920;28;20129;-74
2023/09/17 00:35:48;;;;;;;25.80;13.25;;;12.40;100.00;;;;;;5008312;28;20049;-74
2023/09/17 00:38:15;;;;;;;22.77;12.50;;;12.30;100.00;;;;;;5008108;28;20126;-74
2023/09/17 00:40:42;;;;;;;24.45;12.00;;;12.30;100.00;;;;;;5008932;28;20088;-74
2023/09/17 00:43:09;;;;;;;23.20;11.07;;;12.30;100.00;;;;;;5025088;28;20071;-74
2023/09/17 00:45:36;;;;;;;18.10;10.45;;;12.30;100.00;;;;;;5007522;28;20080;-74
2023/09/17 00:48:04;;;;;;;20.63;10.80;;;12.20;100.00;;;;;;5008452;28;20652;-74
2023/09/17 00:50:31;;;;;;;13.43;8.90;;;12.20;100.00;;;;;;5026426;28;20049;-74
2023/09/17 00:52:59;;;;;;;18.17;9.13;;;12.20;100.00;;;;;;5007290;28;20053;-74
2023/09/17 00:55:29;;;;;;;16.85;9.85;;;12.20;100.00;;;;;;5005146;28;20147;-74
2023/09/17 00:57:58;;;;;;;22.35;9.80;;;12.20;100.00;;;;;;5005451;28;20050;-74
2023/09/17 01:00:26;;;;;;;13.98;8.77;;;12.10;100.00;;;;;;5016758;28;20111;-74
2023/09/17 01:02:54;;;;;;;16.88;10.10;;;12.00;100.00;;;;;;5005843;28;20749;-74
2023/09/17 01:05:21;;;;;;;13.20;8.52;;;12.00;100.00;;;;;;5006817;28;20048;-74
2023/09/17 01:07:49;;;;;;;15.75;10.23;;;12.00;100.00;;;;;;5025616;28;20120;-74
2023/09/17 01:10:17;;;;;;;16.40;8.82;;;11.90;100.00;;;;;;5007469;28;20156;-74
2023/09/17 01:12:45;;;;;;;15.27;9.15;;;11.90;100.00;;;;;;5022434;28;20049;-74
2023/09/17 01:15:13;;;;;;;14.35;8.90;;;11.80;100.00;;;;;;5026798;28;20053;-74
2023/09/17 01:17:40;;;;;;;15.13;9.50;;;11.80;100.00;;;;;;5007669;28;20242;-73
2023/09/17 01:20:29;;;;;;;14.10;8.88;;;11.70;100.00;;;;;;5023840;28;20148;-74
2023/09/17 01:23:02;;;;;;;14.48;8.82;;;11.70;100.00;;;;;;5022983;28;20164;-74
2023/09/17 01:26:02;;;;;;;15.88;9.10;;;11.70;100.00;;;;;;5005692;28;20050;-74
2023/09/17 01:28:31;;;;;;;14.20;9.00;;;11.60;100.00;;;;;;5016747;28;20045;-74
2023/09/17 01:30:59;;;;;;;14.80;9.15;;;11.60;100.00;;;;;;5005507;28;20470;-74
2023/09/17 01:33:25;;;;;;;15.40;9.50;;;11.60;100.00;;;;;;5005515;28;20073;-74
2023/09/17 01:36:15;;;;;;;14.65;8.77;;;11.60;100.00;;;;;;5023842;28;20049;-74
2023/09/17 01:38:54;;;;;;;16.42;9.65;;;11.50;100.00;;;;;;5004233;28;20053;-74
2023/09/17 01:41:22;;;;;;;16.67;8.35;;;11.50;100.00;;;;;;5005827;28;20111;-74
2023/09/17 01:43:50;;;;;;;14.18;7.97;;;11.50;100.00;;;;;;5023785;28;20053;-74
2023/09/17 01:46:17;;;;;;;13.77;8.35;;;11.50;100.00;;;;;;5025291;28;20072;-73
2023/09/17 01:48:45;;;;;;;12.05;8.25;;;11.50;100.00;;;;;;5007000;28;20140;-74
2023/09/17 01:51:13;;;;;;;14.57;8.73;;;11.50;100.00;;;;;;5006981;28;20404;-74
2023/09/17 01:53:41;;;;;;;13.23;8.60;;;11.50;100.00;;;;;;5018141;28;20619;-74
2023/09/17 01:56:08;;;;;;;12.57;7.90;;;11.50;100.00;;;;;;5008721;28;20107;-74
2023/09/17 01:58:36;;;;;;;14.85;8.93;;;11.50;100.00;;;;;;5006522;28;20177;-74
2023/09/17 02:01:03;;;;;;;14.98;9.73;;;11.50;100.00;;;;;;5004784;28;20064;-74
2023/09/17 02:03:31;;;;;;;14.95;9.05;;;11.50;100.00;;;;;;5016477;28;20055;-73
2023/09/17 02:05:59;;;;;;;16.23;9.43;;;11.50;100.00;;;;;;5020930;28;20046;-74
2023/09/17 02:08:25;;;;;;;15.50;9.43;;;11.40;100.00;;;;;;5020872;28;20602;-74
2023/09/17 02:10:52;;;;;;;16.95;9.32;;;11.50;100.00;;;;;;5020050;28;20493;-74
2023/09/17 02:13:19;;;;;;;16.27;9.48;;;11.50;100.00;;;;;;5017272;28;20060;-74
2023/09/17 02:15:46;;;;;;;16.38;9.40;;;11.50;100.00;;;;;;5023032;28;20492;-74
2023/09/17 02:18:14;;;;;;;15.48;9.98;;;11.40;100.00;;;;;;5022018;28;20119;-74
2023/09/17 02:20:41;;;;;;;13.45;8.88;;;11.40;100.00;;;;;;5023054;28;20065;-74
2023/09/17 02:23:10;;;;;;;16.13;9.00;;;11.40;100.00;;;;;;4997119;28;20498;-74
2023/09/17 02:25:37;;;;;;;14.18;9.18;;;11.30;100.00;;;;;;5022476;28;20751;-73
2023/09/17 02:28:04;;;;;;;16.45;9.10;;;11.30;100.00;;;;;;5021589;28;20843;-74
2023/09/17 02:30:31;;;;;;;15.65;10.10;;;11.40;100.00;;;;;;5023021;28;20143;-74
2023/09/17 02:32:58;;;;;;;14.30;9.55;;;11.30;100.00;;;;;;5022636;28;20502;-74
2023/09/17 02:35:25;;;;;;;14.80;9.75;;;11.30;100.00;;;;;;5023126;28;20049;-74
2023/09/17 02:37:52;;;;;;;18.38;9.93;;;11.30;100.00;;;;;;5022451;28;20049;-73
2023/09/17 02:40:19;;;;;;;14.68;9.23;;;11.20;100.00;;;;;;5004534;28;20057;-74
2023/09/17 02:42:48;;;;;;;17.15;9.40;;;11.10;100.00;;;;;;5022299;28;20052;-74
2023/09/17 02:45:15;;;;;;;16.38;8.98;;;11.10;100.00;;;;;;5018787;28;20058;-74
2023/09/17 02:47:42;;;;;;;14.02;8.32;;;11.10;100.00;;;;;;5021129;28;20057;-74
2023/09/17 02:50:09;;;;;;;15.50;9.27;;;11.10;100.00;;;;;;5000162;28;20049;-74
2023/09/17 02:52:37;;;;;;;16.67;9.75;;;11.00;100.00;;;;;;5019794;28;20141;-74
2023/09/17 02:55:05;;;;;;;15.20;9.55;;;11.00;100.00;;;;;;5003002;28;20124;-74
2023/09/17 02:57:32;;;;;;;17.80;9.13;;;11.00;100.00;;;;;;5020117;28;20132;-74
2023/09/17 02:59:58;;;;;;;13.05;9.10;;;11.00;100.00;;;;;;5021952;28;20065;-74
2023/09/17 03:02:25;;;;;;;14.48;8.55;;;11.10;100.00;;;;;;5019329;28;20110;-74
2023/09/17 03:04:52;;;;;;;14.48;9.00;;;11.10;100.00;;;;;;5026757;28;20057;-74
2023/09/17 03:07:19;;;;;;;15.85;8.65;;;11.00;100.00;;;;;;5020788;28;20049;-74
2023/09/17 03:09:46;;;;;;;17.58;7.65;;;11.00;100.00;;;;;;5021785;28;20685;-74
2023/09/17 03:12:13;;;;;;;13.27;8.45;;;11.00;100.00;;;;;;5019957;28;20060;-74
2023/09/17 03:14:40;;;;;;;14.18;7.43;;;11.00;100.00;;;;;;5016920;28;20104;-74
2023/09/17 03:17:07;;;;;;;12.75;7.97;;;11.00;100.00;;;;;;5021140;28;20077;-74
2023/09/17 03:19:34;;;;;;;10.20;6.97;;;10.90;100.00;;;;;;5017764;28;20060;-74
2023/09/17 03:22:02;;;;;;;12.48;7.70;;;10.90;100.00;;;;;;5017350;28;20053;-74
2023/09/17 03:24:29;;;;;;;16.45;7.78;;;10.90;100.00;;;;;;5002336;28;20111;-74
2023/09/17 03:26:56;;;;;;;20.65;8.05;;;10.90;100.00;;;;;;5004268;28;20042;-74
2023/09/17 03:29:24;;;;;;;11.80;7.28;;;10.90;100.00;;;;;;5022382;28;20060;-74
2023/09/17 03:31:52;;;;;;;13.15;7.60;;;10.90;100.00;;;;;;5020946;28;20049;-74
2023/09/17 03:34:19;;;;;;;12.05;7.22;;;10.90;100.00;;;;;;5004695;28;20122;-73
2023/09/17 03:36:46;;;;;;;12.98;8.45;;;10.80;100.00;;;;;;5021291;28;20087;-74
2023/09/17 03:39:13;;;;;;;14.13;7.57;;;10.80;100.00;;;;;;5017868;28;20136;-74
2023/09/17 03:41:40;;;;;;;17.40;9.00;;;10.80;100.00;;;;;;5015446;28;20057;-74
2023/09/17 03:44:09;;;;;;;19.10;8.95;;;10.80;100.00;;;;;;4996519;28;20072;-74
2023/09/17 03:46:37;;;;;;;14.10;8.35;;;10.80;100.00;;;;;;5004728;28;20061;-74
2023/09/17 03:49:05;;;;;;;13.50;8.18;;;10.80;100.00;;;;;;5004639;28;20740;-73
2023/09/17 03:51:33;;;;;;;11.38;7.10;;;10.70;100.00;;;;;;5005420;28;20143;-73
2023/09/17 03:54:00;;;;;;;11.85;7.68;;;10.70;100.00;;;;;;5020314;28;20509;-74
2023/09/17 03:56:27;;;;;;;16.30;8.20;;;10.70;100.00;;;;;;5022830;28;20050;-74
2023/09/17 03:58:54;;;;;;;16.42;7.22;;;10.70;100.00;;;;;;5024230;28;20049;-74
2023/09/17 04:01:21;;;;;;;15.23;7.75;;;10.80;100.00;;;;;;5027156;28;20100;-74
2023/09/17 04:03:48;;;;;;;14.15;7.78;;;10.80;100.00;;;;;;5010385;28;20566;-74
2023/09/17 04:06:16;;;;;;;13.05;7.68;;;10.80;100.00;;;;;;5011106;28;20076;-74
2023/09/17 04:08:43;;;;;;;14.00;7.68;;;10.80;100.00;;;;;;5013569;28;20391;-74
2023/09/17 04:11:15;;;;;;;14.38;8.38;;;10.70;100.00;;;;;;5010649;28;20068;-74
2023/09/17 04:13:43;;;;;;;15.93;8.43;;;10.70;100.00;;;;;;5009853;28;20135;-74
2023/09/17 04:16:10;;;;;;;13.52;8.07;;;10.70;100.00;;;;;;5028257;28;20060;-74
2023/09/17 04:18:37;;;;;;;10.95;7.50;;;10.60;100.00;;;;;;5027623;28;20124;-74
2023/09/17 04:21:04;;;;;;;14.63;7.05;;;10.60;100.00;;;;;;5028531;28;20061;-74
2023/09/17 04:23:31;;;;;;;12.98;7.55;;;10.60;100.00;;;;;;5009274;28;20064;-73
2023/09/17 04:25:58;;;;;;;14.27;7.90;;;10.50;100.00;;;;;;5025947;28;20042;-74
2023/09/17 04:28:25;;;;;;;16.33;7.38;;;10.50;100.00;;;;;;5024231;28;20049;-74
2023/09/17 04:30:52;;;;;;;10.82;7.57;;;10.50;100.00;;;;;;5027589;28;20045;-74
2023/09/17 04:33:20;;;;;;;12.63;7.63;;;10.50;100.00;;;;;;5028396;28;20719;-73
2023/09/17 04:35:47;;;;;;;10.77;7.55;;;10.50;100.00;;;;;;5008515;28;20051;-74
2023/09/17 04:38:14;;;;;;;10.82;7.32;;;10.40;100.00;;;;;;5027800;28;20789;-74
2023/09/17 04:40:42;;;;;;;12.45;7.57;;;10.40;100.00;;;;;;5023017;28;20057;-74
2023/09/17 04:43:08;;;;;;;13.57;7.07;;;10.40;100.00;;;;;;5027557;28;20142;-74
2023/09/17 04:45:38;;;;;;;13.18;6.72;;;10.30;100.00;;;;;;5026235;28;20054;-73
2023/09/17 04:48:06;;;;;;;14.00;8.07;;;10.30;100.00;;;;;;5009720;28;20057;-73
2023/09/17 04:50:33;;;;;;;12.25;7.57;;;10.30;100.00;;;;;;5027238;28;20049;-73
2023/09/17 04:53:01;;;;;;;15.45;7.93;;;10.30;100.00;;;;;;5010554;28;20045;-73
2023/09/17 04:55:28;;;;;;;18.75;7.38;;;10.30;100.00;;;;;;5024479;28;20045;-74
2023/09/17 04:57:55;;;;;;;14.20;8.63;;;10.30;100.00;;;;;;5024622;28;20057;-73
2023/09/17 05:00:22;;;;;;;11.77;7.85;;;10.30;100.00;;;;;;5009977;28;20049;-74
2023/09/17 05:02:49;;;;;;;12.38;7.63;;;10.30;100.00;;;;;;5027609;28;20053;-74
2023/09/17 05:05:18;;;;;;;17.00;8.10;;;10.40;100.00;;;;;;5022769;28;20135;-74
2023/09/17 05:07:48;;;;;;;10.65;7.13;;;10.40;100.00;;;;;;5023543;28;20136;-74
2023/09/17 05:10:15;;;;;;;14.07;8.13;;;10.40;100.00;;;;;;5006301;28;20061;-74
2023/09/17 05:12:43;;;;;;;12.70;7.78;;;10.40;100.00;;;;;;5006132;28;20111;-74
2023/09/17 05:15:11;;;;;;;13.45;7.57;;;10.40;100.00;;;;;;5006607;28;20477;-74
2023/09/17 05:17:38;;;;;;;14.10;8.00;;;10.40;100.00;;;;;;5005656;28;20119;-74
2023/09/17 05:20:06;;;;;;;11.45;7.60;;;10.40;100.00;;;;;;5021418;28;20049;-74
2023/09/17 05:22:34;;;;;;;12.55;7.65;;;10.50;100.00;;;;;;5003692;28;20057;-73
2023/09/17 05:25:03;;;;;;;11.35;7.65;;;10.50;100.00;;;;;;5020766;28;20107;-73
2023/09/17 05:27:31;;;;;;;10.82;7.80;;;10.50;100.00;;;;;;5022018;28;20056;-73
2023/09/17 05:30:00;;;;;;;11.07;7.50;;;10.50;100.00;;;;;;5005535;28;20781;-74
2023/09/17 05:32:28;;;;;;;10.30;7.03;;;10.50;100.00;;;;;;5003926;28;20076;-73
2023/09/17 05:34:59;;;;;;;11.40;8.00;;;10.50;100.00;;;;;;5006520;28;20111;-74
2023/09/17 05:37:27;;;;;;;13.15;7.82;;;10.60;100.00;;;;;;5022768;28;20052;-74
2023/09/17 05:39:54;;;;;;;9.93;7.00;;;10.60;100.00;;;;;;5024399;28;20485;-74
2023/09/17 05:42:21;;;;;;;11.25;7.03;;;10.60;100.00;;;;;;5023536;28;20080;-74
2023/09/17 05:44:48;;;;;;;11.27;7.55;;;10.70;100.00;;;;;;5007272;28;20206;-73
2023/09/17 05:47:15;;;;;;;12.95;7.68;;;10.80;100.00;;;;;;5022599;28;20826;-74
2023/09/17 05:49:41;;;;;;;11.38;7.75;;;10.80;100.00;;;;;;5021858;28;20486;-74
2023/09/17 05:52:09;;;;;;;9.10;6.90;;;10.90;100.00;;;;;;5004990;28;20578;-74
2023/09/17 05:54:36;;;;;;;11.63;7.68;;;10.90;100.00;;;;;;5022680;28;20098;-74
2023/09/17 05:57:07;;;;;;;13.15;7.18;;;10.90;100.00;;;;;;5006139;28;20060;-74
2023/09/17 05:59:39;;;;;;;13.88;7.43;;;11.00;100.00;;;;;;5007672;28;20144;-74
2023/09/17 06:02:08;;;;;;;16.73;7.47;;;11.10;100.00;;;;;;5019827;28;20100;-74
2023/09/17 06:04:35;;;;;;;14.40;7.60;;;11.20;100.00;;;;;;5017575;28;20134;-74
2023/09/17 06:07:03;;;;;;;13.18;7.68;;;11.20;100.00;;;;;;5022462;28;20060;-74
2023/09/17 06:09:33;;;;;;;16.23;8.60;;;11.30;100.00;;;;;;5021544;28;20095;-74
2023/09/17 06:12:00;;;;;;;12.98;8.70;;;11.40;100.00;;;;;;5006291;28;20060;-73
2023/09/17 06:14:26;;;;;;;14.02;7.45;;;11.50;100.00;;;;;;5016032;28;20120;-74
2023/09/17 06:16:53;;;;;;;15.05;8.05;;;11.60;100.00;;;;;;5017341;28;20073;-74
2023/09/17 06:19:25;;;;;;;14.20;8.02;;;11.80;100.00;;;;;;5016845;28;20557;-74
2023/09/17 06:21:52;;;;;;;13.77;8.63;;;12.00;100.00;;;;;;5006002;28;20045;-74
2023/09/17 06:24:19;;;;;;;13.00;8.32;;;12.20;100.00;;;;;;5019255;28;20053;-74
2023/09/17 06:26:46;;;;;;;11.88;8.43;;;12.50;100.00;;;;;;5007689;28;20127;-81
2023/09/17 06:29:13;;;;;;;12.85;8.63;;;12.70;100.00;;;;;;5017534;28;20775;-80
2023/09/17 06:31:40;;;;;;;14.93;8.88;;;12.90;100.00;;;;;;5013466;28;20049;-80
2023/09/17 06:34:09;;;;;;;12.43;8.43;;;13.00;100.00;;;;;;5014137;28;20045;-80
2023/09/17 06:36:37;;;;;;;13.63;7.75;;;13.20;100.00;;;;;;5031932;28;20077;-80
2023/09/17 06:39:06;;;;;;;12.00;7.93;;;13.30;100.00;;;;;;5029984;28;20045;-81
2023/09/17 06:41:35;;;;;;;13.95;8.07;;;13.50;100.00;;;;;;5007289;28;20050;-79
2023/09/17 06:44:06;;;;;;;13.65;9.45;;;13.70;100.00;;;;;;5030188;28;20049;-83
2023/09/17 06:46:33;;;;;;;15.77;8.38;;;13.90;99.70;;;;;;5009400;28;20820;-75
2023/09/17 06:49:00;;;;;;;13.38;8.40;;;14.10;99.90;;;;;;5003536;28;20156;-75
2023/09/17 06:51:27;;;;;;;10.98;8.05;;;14.30;99.10;;;;;;5031933;28;20056;-76
2023/09/17 06:53:54;;;;;;;11.40;7.65;;;14.50;98.60;;;;;;5024571;28;20045;-76
2023/09/17 06:56:23;;;;;;;11.77;8.07;;;14.70;97.80;;;;;;5006925;28;20061;-77
2023/09/17 06:58:51;;;;;;;9.02;7.13;;;14.80;96.60;;;;;;5021386;28;20513;-79
2023/09/17 07:01:19;;;;;;;11.77;8.38;;;15.00;96.40;;;;;;5008014;28;20057;-78
2023/09/17 07:03:46;;;;;;;9.18;6.88;;;15.20;95.50;;;;;;5007250;28;20060;-78
2023/09/17 07:06:14;;;;;;;11.65;6.97;;;15.30;94.70;;;;;;5007505;28;20052;-78
2023/09/17 07:08:40;;;;;;;9.45;7.00;;;15.30;94.00;;;;;;5006498;28;20553;-77
2023/09/17 07:11:07;;;;;;;9.35;6.63;;;15.60;93.30;;;;;;5028703;28;20045;-80
2023/09/17 07:13:34;;;;;;;22.23;6.82;;;15.70;92.90;;;;;;5011705;28;20490;-79
2023/09/17 07:16:01;;;;;;;9.95;6.18;;;15.90;92.20;;;;;;5014669;28;20046;-80
2023/09/17 07:18:31;;;;;;;8.57;6.50;;;16.10;92.00;;;;;;5027006;28;20064;-83
2023/09/17 07:20:58;;;;;;;9.80;6.95;;;16.30;92.20;;;;;;5026991;28;20773;-79
2023/09/17 07:23:25;;;;;;;11.77;7.13;;;16.50;91.60;;;;;;5020449;28;20711;-76
2023/09/17 07:25:52;;;;;;;10.82;7.07;;;16.80;91.10;;;;;;5027734;28;20056;-76
2023/09/17 07:28:20;;;;;;;9.77;6.57;;;17.10;91.10;;;;;;5024693;28;20045;-76
2023/09/17 07:30:53;;;;;;;10.50;7.13;;;17.30;90.60;;;;;;5004759;28;20049;-77
2023/09/17 07:33:20;;;;;;;12.68;7.40;;;17.60;90.30;;;;;;5001697;28;20160;-77
2023/09/17 07:35:48;;;;;;;10.23;7.53;;;17.80;90.30;;;;;;5031927;28;20053;-78
2023/09/17 07:38:15;;;;;;;10.65;6.85;;;18.10;89.30;;;;;;5027697;28;20505;-76
2023/09/17 07:40:42;;;;;;;10.48;7.18;;;18.30;88.60;;;;;;5011074;28;20049;-79
2023/09/17 07:43:09;;;;;;;9.18;6.80;;;18.50;88.30;;;;;;5010676;28;20968;-78
2023/09/17 07:45:36;;;;;;;10.25;5.97;;;18.70;87.80;;;;;;5029562;28;20544;-79
2023/09/17 07:48:03;;;;;;;11.55;6.43;;;19.00;86.20;;;;;;5009652;28;20475;-79
2023/09/17 07:50:30;;;;;;;12.32;7.05;;;19.20;84.60;;;;;;5001803;28;20049;-78
2023/09/17 07:52:57;;;;;;;9.95;5.80;;;19.40;83.60;;;;;;5010732;28;20045;-78
2023/09/17 07:55:25;;;;;;;9.95;6.10;;;19.60;83.20;;;;;;5029699;28;20041;-78
2023/09/17 07:57:52;;;;;;;9.20;6.03;;;19.80;82.50;;;;;;5010769;28;20053;-78
2023/09/17 08:00:21;;;;;;;9.15;5.78;;;20.10;81.50;;;;;;5016219;28;20061;-78
2023/09/17 08:02:48;;;;;;;11.20;5.95;;;20.30;80.10;;;;;;5031438;28;20049;-78
2023/09/17 08:05:17;;;;;;;9.57;5.25;;;20.50;78.70;;;;;;5026724;28;20171;-78
2023/09/17 08:07:45;;;;;;;10.00;5.50;;;20.70;78.50;;;;;;5027070;28;20045;-77
2023/09/17 08:10:13;;;;;;;9.77;6.00;;;20.90;77.10;;;;;;5007921;28;20049;-78
2023/09/17 08:12:40;;;;;;;10.23;5.60;;;21.10;78.70;;;;;;5022620;28;20517;-77
2023/09/17 08:15:07;;;;;;;11.23;6.05;;;21.40;78.10;;;;;;5003564;28;20057;-77
2023/09/17 08:17:34;;;;;;;10.25;5.97;;;21.70;77.20;;;;;;5013145;28;20053;-77
2023/09/17 08:20:01;;;;;;;9.10;5.93;;;21.80;77.20;;;;;;5008266;28;20057;-77
2023/09/17 08:22:29;;;;;;;10.27;6.00;;;22.10;76.00;;;;;;5025389;28;20072;-78
2023/09/17 08:24:56;;;;;;;7.53;5.38;;;22.30;75.00;;;;;;5023722;28;20057;-77
2023/09/17 08:27:23;;;;;;;9.10;5.30;;;22.60;75.10;;;;;;5024647;28;20518;-77
2023/09/17 08:29:49;;;;;;;9.57;5.95;;;22.80;74.10;;;;;;5009140;28;20119;-77
2023/09/17 08:32:16;;;;;;;6.40;4.80;;;23.00;73.50;;;;;;5025363;28;20077;-78
2023/09/17 08:34:43;;;;;;;7.20;5.50;;;23.20;73.30;;;;;;5020468;28;20115;-79
2023/09/17 08:37:10;;;;;;;9.68;5.25;;;23.30;72.90;;;;;;5026346;28;20123;-78
2023/09/17 08:39:37;;;;;;;9.63;5.85;;;23.30;73.10;;;;;;5006247;28;20049;-86
2023/09/17 08:42:04;;;;;;;7.72;4.82;;;23.30;73.30;;;;;;5028195;28;20053;-86
2023/09/17 08:44:35;;;;;;;6.13;4.80;;;23.50;72.20;;;;;;5031876;28;20041;-85
2023/09/17 08:47:02;;;;;;;7.45;4.95;;;23.60;71.40;;;;;;5012490;28;20124;-84
2023/09/17 08:49:29;;;;;;;9.40;4.85;;;23.70;71.10;;;;;;5019154;28;20045;-84
2023/09/17 08:51:58;;;;;;;7.13;4.60;;;23.80;71.40;;;;;;5011745;28;20053;-85
2023/09/17 08:54:33;;;;;;;7.05;4.57;;;23.90;71.50;;;;;;5012873;28;20046;-82
2023/09/17 08:57:03;;;;;;;7.40;5.03;;;24.30;70.30;;;;;;5018094;28;20058;-83
2023/09/17 08:59:36;;;;;;;8.45;4.57;;;24.50;69.00;;;;;;5019214;28;20633;-83
2023/09/17 09:02:07;;;;;;;8.15;4.22;;;24.50;70.10;;;;;;5011073;28;20153;-82
2023/09/17 09:04:36;;;;;;;8.02;4.78;;;24.80;68.70;;;;;;5018768;28;20060;-83
2023/09/17 09:07:04;;;;;;;6.00;4.80;;;25.00;69.20;;;;;;5032221;28;20115;-83
2023/09/17 09:09:36;;;;;;;6.68;4.63;;;25.50;68.80;;;;;;5029175;28;20053;-84
2023/09/17 09:12:03;;;;;;;6.53;4.55;;;25.80;66.50;;;;;;5031410;28;20045;-85
2023/09/17 09:14:31;;;;;;;6.28;4.80;;;25.90;65.70;;;;;;5029388;28;20053;-86
2023/09/17 09:17:01;;;;;;;8.00;4.95;;;26.30;64.80;;;;;;5030641;28;20748;-83
2023/09/17 09:19:28;;;;;;;10.93;5.32;;;26.70;63.90;;;;;;5032132;28;20042;-85
2023/09/17 09:21:55;;;;;;;9.98;4.80;;;27.00;62.90;;;;;;5030043;28;20072;-84
2023/09/17 09:24:24;;;;;;;6.43;4.43;;;27.40;60.60;;;;;;5029740;28;20045;-86
2023/09/17 09:26:51;;;;;;;9.10;4.45;;;27.60;60.00;;;;;;5031445;28;20049;-86
2023/09/17 09:29:20;;;;;;;6.68;4.60;;;27.80;58.50;;;;;;5031025;28;20119;-86
2023/09/17 09:31:47;;;;;;;8.75;4.28;;;27.70;58.20;;;;;;5027527;28;20661;-86
2023/09/17 09:34:14;;;;;;;8.05;4.30;;;28.10;57.60;;;;;;5033997;28;20041;-86
2023/09/17 09:36:44;;;;;;;7.85;4.60;;;28.50;57.00;;;;;;5013974;28;20053;-86
2023/09/17 09:39:15;;;;;;;13.63;5.38;;;28.90;55.60;;;;;;5027081;28;20829;-86
2023/09/17 09:41:42;;;;;;;15.93;3.92;;;29.30;56.00;;;;;;5006057;28;20088;-85
2023/09/17 09:44:09;;;;;;;5.75;3.78;;;29.70;54.20;;;;;;5021110;28;20741;-86
2023/09/17 09:46:36;;;;;;;6.75;4.20;;;29.20;55.10;;;;;;5034663;28;20053;-86
2023/09/17 09:49:04;;;;;;;6.43;4.03;;;29.60;55.90;;;;;;5011039;28;20046;-85
2023/09/17 09:51:31;;;;;;;8.63;3.83;;;29.90;54.00;;;;;;5030497;28;20049;-85
2023/09/17 09:53:59;;;;;;;5.40;3.90;;;30.30;53.40;;;;;;5032068;28;20111;-85
2023/09/17 09:56:27;;;;;;;6.63;3.92;;;30.40;53.20;;;;;;5032251;28;20049;-85
2023/09/17 09:58:56;;;;;;;5.30;3.65;;;30.20;52.00;;;;;;5031729;28;20053;-85
2023/09/17 10:01:25;;;;;;;4.70;3.58;;;30.20;51.90;;;;;;5023260;28;20060;-86
2023/09/17 10:03:57;;;;;;;6.78;3.53;;;30.70;53.00;;;;;;5009221;28;20072;-85
2023/09/17 10:06:25;;;;;;;7.82;3.88;;;30.60;51.20;;;;;;5034436;28;20056;-85
2023/09/17 10:08:53;;;;;;;6.75;4.60;;;30.40;51.90;;;;;;5032607;28;20076;-84
2023/09/17 10:11:22;;;;;;;6.35;4.03;;;30.10;53.00;;;;;;5011710;28;20072;-85
2023/09/17 10:14:10;;;;;;;6.35;3.88;;;30.90;52.60;;;;;;5012264;28;20103;-86
2023/09/17 10:16:40;;;;;;;7.22;3.33;;;31.30;48.60;;;;;;5028890;28;20128;-85
2023/09/17 10:19:09;;;;;;;7.15;3.03;;;31.40;51.20;;;;;;5025268;28;20088;-85
2023/09/17 10:21:38;;;;;;;8.35;3.35;;;31.20;49.40;;;;;;5037388;28;20053;-84
2023/09/17 10:24:06;;;;;;;5.78;3.83;;;31.20;49.70;;;;;;5006457;28;20065;-85
2023/09/17 10:26:41;;;;;;;5.03;3.38;;;31.10;50.10;;;;;;5016101;28;20056;-85
2023/09/17 10:29:12;;;;;;;5.90;3.15;;;30.70;50.90;;;;;;5005306;28;20122;-84
2023/09/17 10:31:41;;;;;;;4.22;3.22;;;30.60;51.80;;;;;;5024570;28;20108;-84
2023/09/17 10:34:15;;;;;;;7.78;3.30;;;30.40;51.30;;;;;;5010686;28;20053;-84
2023/09/17 10:36:43;;;;;;;6.28;3.45;;;30.20;50.90;;;;;;5023540;28;20094;-85
2023/09/17 10:39:13;;;;;;;12.02;3.35;;;29.90;51.70;;;;;;5033050;28;20120;-85
2023/09/17 10:41:41;;;;;;;5.68;3.40;;;29.80;52.60;;;;;;5025562;28;20096;-84
2023/09/17 10:44:13;;;;;;;3.85;3.17;;;29.70;53.50;;;;;;5006676;28;20107;-84
2023/09/17 10:46:45;;;;;;;5.25;3.72;;;29.50;53.10;;;;;;5015505;28;20653;-84
2023/09/17 10:49:13;;;;;;;4.35;3.22;;;29.60;53.10;;;;;;5031171;28;20675;-84
2023/09/17 10:51:44;;;;;;;5.72;4.03;;;29.70;53.60;;;;;;5025901;28;20045;-85
2023/09/17 10:54:11;;;;;;;7.72;3.28;;;29.80;52.90;;;;;;5028866;28;20049;-85
2023/09/17 10:56:41;;;;;;;8.93;3.58;;;29.60;52.50;;;;;;5009619;28;20494;-84
2023/09/17 10:59:12;;;;;;;6.03;3.58;;;29.10;52.40;;;;;;5023009;28;20068;-85
2023/09/17 11:01:41;;;;;;;6.07;3.47;;;28.90;52.50;;;;;;5029418;28;20107;-85
2023/09/17 11:04:13;;;;;;;4.43;3.78;;;28.70;54.30;;;;;;5010878;28;20834;-85
2023/09/17 11:06:43;;;;;;;6.47;3.53;;;28.60;55.40;;;;;;5032129;28;20052;-82
2023/09/17 11:09:11;;;;;;;3.97;3.35;;;28.70;55.30;;;;;;5029053;28;20077;-83
2023/09/17 11:11:38;;;;;;;8.43;3.60;;;28.80;54.20;;;;;;5023224;28;20115;-81
2023/09/17 11:14:04;;;;;;;7.47;3.80;;;28.70;55.50;;;;;;5009667;28;20049;-80
2023/09/17 11:16:34;;;;;;;6.72;3.70;;;28.90;55.10;;;;;;5003720;28;20049;-80
2023/09/17 11:19:09;;;;;;;5.78;3.63;;;28.70;54.80;;;;;;5010463;28;20053;-81
2023/09/17 11:21:37;;;;;;;6.30;3.80;;;28.40;54.80;;;;;;5006937;28;20470;-81
2023/09/17 11:24:06;;;;;;;10.18;4.68;;;28.40;56.00;;;;;;5023334;28;20493;-81
2023/09/17 11:26:38;;;;;;;8.20;4.30;;;28.30;56.20;;;;;;5003888;28;20140;-81
2023/09/17 11:29:06;;;;;;;10.05;4.43;;;28.20;55.30;;;;;;5004239;28;20208;-87
2023/09/17 11:31:54;;;;;;;8.93;4.13;;;28.10;57.00;;;;;;4999629;28;20061;-79
2023/09/17 11:34:21;;;;;;;7.18;4.13;;;28.30;56.20;;;;;;5011136;28;20080;-79
2023/09/17 11:36:50;;;;;;;7.68;4.25;;;28.30;57.50;;;;;;5025260;28;20046;-80
2023/09/17 11:39:20;;;;;;;6.75;3.70;;;28.30;54.90;;;;;;5024312;28;20050;-78
2023/09/17 11:41:52;;;;;;;7.97;4.28;;;28.40;56.50;;;;;;5006405;28;20050;-79
2023/09/17 11:44:21;;;;;;;4.50;3.58;;;28.40;57.10;;;;;;5020200;28;20634;-79
2023/09/17 11:46:48;;;;;;;8.43;4.32;;;28.30;57.30;;;;;;5027111;28;20064;-79
2023/09/17 11:49:18;;;;;;;6.68;4.00;;;28.30;57.00;;;;;;5001539;28;20056;-79
2023/09/17 11:51:46;;;;;;;12.82;4.13;;;28.30;57.00;;;;;;5023338;28;20780;-79
2023/09/17 11:54:15;;;;;;;8.43;5.10;;;28.20;57.20;;;;;;5022819;28;20053;-79
2023/09/17 11:56:49;;;;;;;3.95;3.60;;;28.10;57.20;;;;;;5024003;28;20057;-79
2023/09/17 11:59:16;;;;;;;7.95;4.10;;;28.20;57.60;;;;;;5006742;28;20723;-79
2023/09/17 12:01:55;;;;;;;7.40;4.45;;;28.20;56.80;;;;;;5008220;28;20053;-79
2023/09/17 12:04:25;;;;;;;5.57;4.32;;;28.40;58.30;;;;;;5023270;28;20057;-80
2023/09/17 12:06:53;;;;;;;8.68;4.60;;;28.50;58.10;;;;;;5007353;28;20168;-80
2023/09/17 12:12:06;;;;;;;9.70;3.80;;;28.70;56.90;;;;;;5027037;28;20127;-79
2023/09/17 12:14:34;;;;;;;5.88;4.15;;;28.60;57.10;;;;;;5007170;28;20422;-80
2023/09/17 12:17:02;;;;;;;7.07;4.35;;;28.50;57.20;;;;;;5027317;28;20053;-80
2023/09/17 12:19:29;;;;;;;4.88;3.80;;;28.50;57.00;;;;;;5026840;28;20080;-79
2023/09/17 12:21:59;;;;;;;8.57;4.65;;;28.70;57.80;;;;;;5010031;28;20057;-79
2023/09/17 12:27:34;;;;;;;8.98;5.03;;;29.30;56.60;;;;;;5026129;28;20057;-80
2023/09/17 12:30:05;;;;;;;4.60;3.67;;;29.40;55.90;;;;;;5024223;28;20148;-80
2023/09/17 12:32:34;;;;;;;6.10;4.53;;;29.60;56.70;;;;;;5012808;28;20111;-80
2023/09/17 12:35:03;;;;;;;6.35;4.70;;;29.90;55.10;;;;;;5009257;28;20924;-78
2023/09/17 12:37:30;;;;;;;6.47;4.35;;;30.00;54.80;;;;;;5013369;28;20125;-80
2023/09/17 12:39:56;;;;;;;5.65;4.05;;;30.40;54.70;;;;;;5026944;28;20170;-79
2023/09/17 12:42:24;;;;;;;9.20;4.82;;;30.90;53.50;;;;;;5027235;28;20694;-81
2023/09/17 12:44:53;;;;;;;8.57;4.53;;;30.90;53.50;;;;;;5021472;28;20056;-81
2023/09/17 12:47:21;;;;;;;6.60;4.32;;;30.70;53.90;;;;;;5013330;28;20508;-81